sensor_id;sensor_type;location;lat;lon;timestamp;pressure;altitude;pressure_sealevel;temperature;humidity
24302;BME280;12421;49.732;20.078;2023-03-13T00:07:25;96417.11;;;3.42;61.85
24302;BME280;12421;49.732;20.078;2023-03-13T00:17:28;96410.09;;;3.54;62.38
24302;BME280;12421;49.732;20.078;2023-03-13T00:27:32;96419.85;;;3.58;62.95
24302;BME280;12421;49.732;20.078;2023-03-13T00:37:36;96431.92;;;3.70;63.69
24302;BME280;12421;49.732;20.078;2023-03-13T00:47:39;96418.59;;;3.76;65.20
24302;BME280;12421;49.732;20.078;2023-03-13T00:57:44;96412.51;;;3.75;66.11
24302;BME280;12421;49.732;20.078;2023-03-13T01:07:47;96403.33;;;3.78;66.45
24302;BME280;12421;49.732;20.078;2023-03-13T01:17:52;96380.48;;;3.88;66.80
24302;BME280;12421;49.732;20.078;2023-03-13T01:27:57;96372.11;;;3.84;67.29
24302;BME280;12421;49.732;20.078;2023-03-13T01:38:00;96374.33;;;3.79;67.63
24302;BME280;12421;49.732;20.078;2023-03-13T01:48:04;96379.86;;;3.73;67.76
24302;BME280;12421;49.732;20.078;2023-03-13T01:58:27;96376.41;;;3.76;68.03
24302;BME280;12421;49.732;20.078;2023-03-13T02:08:39;96379.69;;;3.73;68.09
24302;BME280;12421;49.732;20.078;2023-03-13T02:18:45;96394.60;;;3.73;68.50
24302;BME280;12421;49.732;20.078;2023-03-13T02:28:48;96407.67;;;3.79;68.88
24302;BME280;12421;49.732;20.078;2023-03-13T02:38:56;96413.69;;;3.94;68.78
24302;BME280;12421;49.732;20.078;2023-03-13T02:49:18;96417.04;;;4.03;68.85
24302;BME280;12421;49.732;20.078;2023-03-13T02:59:22;96438.44;;;4.09;69.12
24302;BME280;12421;49.732;20.078;2023-03-13T03:09:26;96450.96;;;4.15;69.33
24302;BME280;12421;49.732;20.078;2023-03-13T03:19:33;96463.88;;;4.21;69.46
24302;BME280;12421;49.732;20.078;2023-03-13T03:29:37;96468.41;;;4.28;69.54
24302;BME280;12421;49.732;20.078;2023-03-13T03:39:40;96461.95;;;4.20;69.89
24302;BME280;12421;49.732;20.078;2023-03-13T03:49:44;96465.25;;;4.20;70.46
24302;BME280;12421;49.732;20.078;2023-03-13T03:59:47;96464.94;;;4.28;70.60
24302;BME280;12421;49.732;20.078;2023-03-13T04:09:51;96470.53;;;4.32;70.63
24302;BME280;12421;49.732;20.078;2023-03-13T04:20:09;96469.49;;;4.33;70.83
24302;BME280;12421;49.732;20.078;2023-03-13T04:30:16;96451.98;;;4.39;71.07
24302;BME280;12421;49.732;20.078;2023-03-13T04:40:38;96456.84;;;4.38;71.40
24302;BME280;12421;49.732;20.078;2023-03-13T04:51:13;96468.79;;;4.32;71.56
24302;BME280;12421;49.732;20.078;2023-03-13T05:01:25;96475.77;;;4.38;71.90
24302;BME280;12421;49.732;20.078;2023-03-13T05:11:34;96464.91;;;4.53;71.86
24302;BME280;12421;49.732;20.078;2023-03-13T05:21:56;96460.77;;;4.59;72.18
24302;BME280;12421;49.732;20.078;2023-03-13T05:32:22;96456.47;;;4.70;72.32
24302;BME280;12421;49.732;20.078;2023-03-13T05:42:29;96454.62;;;4.87;72.37
24302;BME280;12421;49.732;20.078;2023-03-13T05:52:45;96458.17;;;5.14;72.32
24302;BME280;12421;49.732;20.078;2023-03-13T06:03:20;96451.44;;;5.32;72.16
24302;BME280;12421;49.732;20.078;2023-03-13T06:13:27;96453.16;;;5.30;72.02
24302;BME280;12421;49.732;20.078;2023-03-13T06:23:36;96455.97;;;5.37;72.44
24302;BME280;12421;49.732;20.078;2023-03-13T06:33:39;96448.50;;;5.48;72.52
24302;BME280;12421;49.732;20.078;2023-03-13T06:43:42;96444.33;;;5.58;72.64
24302;BME280;12421;49.732;20.078;2023-03-13T06:53:46;96439.64;;;5.93;72.86
24302;BME280;12421;49.732;20.078;2023-03-13T07:03:49;96432.26;;;6.82;71.96
24302;BME280;12421;49.732;20.078;2023-03-13T07:13:54;96410.70;;;7.94;70.40
24302;BME280;12421;49.732;20.078;2023-03-13T07:24:16;96388.96;;;8.95;67.90
24302;BME280;12421;49.732;20.078;2023-03-13T07:34:21;96385.17;;;9.63;66.13
24302;BME280;12421;49.732;20.078;2023-03-13T07:44:24;96387.76;;;9.98;65.43
24302;BME280;12421;49.732;20.078;2023-03-13T07:54:28;96379.46;;;10.31;64.82
24302;BME280;12421;49.732;20.078;2023-03-13T08:04:31;96370.73;;;10.09;63.72
24302;BME280;12421;49.732;20.078;2023-03-13T08:14:34;96354.11;;;10.06;64.21
24302;BME280;12421;49.732;20.078;2023-03-13T08:24:38;96357.71;;;10.21;63.65
24302;BME280;12421;49.732;20.078;2023-03-13T08:34:43;96356.27;;;10.50;63.93
24302;BME280;12421;49.732;20.078;2023-03-13T08:44:46;96355.66;;;10.54;63.50
24302;BME280;12421;49.732;20.078;2023-03-13T08:54:49;96339.43;;;10.75;63.94
24302;BME280;12421;49.732;20.078;2023-03-13T09:04:52;96326.50;;;11.04;63.31
24302;BME280;12421;49.732;20.078;2023-03-13T09:14:55;96300.67;;;11.35;63.75
24302;BME280;12421;49.732;20.078;2023-03-13T09:24:58;96286.42;;;11.85;63.12
24302;BME280;12421;49.732;20.078;2023-03-13T09:35:01;96285.06;;;12.28;61.79
24302;BME280;12421;49.732;20.078;2023-03-13T09:45:08;96289.21;;;12.43;60.92
24302;BME280;12421;49.732;20.078;2023-03-13T09:55:29;96278.50;;;12.60;59.85
24302;BME280;12421;49.732;20.078;2023-03-13T10:05:33;96277.66;;;12.71;59.36
24302;BME280;12421;49.732;20.078;2023-03-13T10:26:28;96241.10;;;13.20;57.75
24302;BME280;12421;49.732;20.078;2023-03-13T10:36:42;96229.46;;;13.36;56.33
24302;BME280;12421;49.732;20.078;2023-03-13T10:46:47;96226.64;;;13.36;55.62
24302;BME280;12421;49.732;20.078;2023-03-13T10:57:06;96220.65;;;13.41;54.87
24302;BME280;12421;49.732;20.078;2023-03-13T11:07:15;96198.49;;;13.64;54.30
24302;BME280;12421;49.732;20.078;2023-03-13T11:17:30;96173.15;;;13.88;53.73
24302;BME280;12421;49.732;20.078;2023-03-13T11:27:52;96163.49;;;13.86;52.69
24302;BME280;12421;49.732;20.078;2023-03-13T11:38:02;96161.84;;;13.99;51.71
24302;BME280;12421;49.732;20.078;2023-03-13T11:58:59;96144.73;;;14.03;50.38
24302;BME280;12421;49.732;20.078;2023-03-13T12:09:23;96132.70;;;13.94;50.01
24302;BME280;12421;49.732;20.078;2023-03-13T12:19:37;96111.48;;;13.95;49.37
24302;BME280;12421;49.732;20.078;2023-03-13T12:29:59;96103.04;;;14.04;48.66
24302;BME280;12421;49.732;20.078;2023-03-13T12:40:40;96092.95;;;14.05;47.95
24302;BME280;12421;49.732;20.078;2023-03-13T13:01:06;96060.16;;;13.80;46.80
24302;BME280;12421;49.732;20.078;2023-03-13T13:21:35;96037.47;;;13.88;47.36
24302;BME280;12421;49.732;20.078;2023-03-13T13:41:49;96042.16;;;13.94;47.30
24302;BME280;12421;49.732;20.078;2023-03-13T13:52:16;96038.62;;;13.90;46.88
24302;BME280;12421;49.732;20.078;2023-03-13T14:02:25;96050.16;;;13.83;47.62
24302;BME280;12421;49.732;20.078;2023-03-13T14:12:37;96056.98;;;13.42;48.67
24302;BME280;12421;49.732;20.078;2023-03-13T14:22:45;96072.59;;;12.94;50.11
24302;BME280;12421;49.732;20.078;2023-03-13T14:32:50;96068.71;;;12.40;52.42
24302;BME280;12421;49.732;20.078;2023-03-13T14:42:55;96060.10;;;11.72;54.56
24302;BME280;12421;49.732;20.078;2023-03-13T14:53:15;96051.73;;;11.26;56.02
24302;BME280;12421;49.732;20.078;2023-03-13T15:03:28;96034.91;;;11.12;55.94
24302;BME280;12421;49.732;20.078;2023-03-13T15:13:35;96023.05;;;11.08;56.21
24302;BME280;12421;49.732;20.078;2023-03-13T15:23:40;96022.95;;;10.86;56.58
24302;BME280;12421;49.732;20.078;2023-03-13T15:33:44;96024.77;;;10.64;57.29
24302;BME280;12421;49.732;20.078;2023-03-13T15:43:48;96009.39;;;10.41;58.82
24302;BME280;12421;49.732;20.078;2023-03-13T15:53:54;96014.11;;;10.06;60.61
24302;BME280;12421;49.732;20.078;2023-03-13T16:03:57;95998.29;;;9.76;61.58
24302;BME280;12421;49.732;20.078;2023-03-13T16:14:02;96000.14;;;9.64;61.81
24302;BME280;12421;49.732;20.078;2023-03-13T16:24:06;95973.17;;;9.57;62.21
24302;BME280;12421;49.732;20.078;2023-03-13T16:34:10;95975.30;;;9.54;62.73
24302;BME280;12421;49.732;20.078;2023-03-13T16:44:13;95977.74;;;9.47;63.02
24302;BME280;12421;49.732;20.078;2023-03-13T16:54:17;95970.49;;;9.43;62.98
24302;BME280;12421;49.732;20.078;2023-03-13T17:04:20;95977.72;;;9.41;62.73
24302;BME280;12421;49.732;20.078;2023-03-13T17:14:23;95971.67;;;9.45;61.95
24302;BME280;12421;49.732;20.078;2023-03-13T17:24:27;95970.56;;;9.47;61.54
24302;BME280;12421;49.732;20.078;2023-03-13T17:34:31;95967.94;;;9.48;60.95
24302;BME280;12421;49.732;20.078;2023-03-13T17:44:35;95952.11;;;9.34;60.79
24302;BME280;12421;49.732;20.078;2023-03-13T17:54:41;95936.09;;;9.23;60.60
24302;BME280;12421;49.732;20.078;2023-03-13T18:04:45;95930.66;;;9.22;60.09
24302;BME280;12421;49.732;20.078;2023-03-13T18:14:49;95917.67;;;9.32;59.61
24302;BME280;12421;49.732;20.078;2023-03-13T18:24:53;95906.23;;;9.41;58.87
24302;BME280;12421;49.732;20.078;2023-03-13T18:34:56;95879.80;;;9.70;57.72
24302;BME280;12421;49.732;20.078;2023-03-13T18:45:00;95872.70;;;10.02;56.71
24302;BME280;12421;49.732;20.078;2023-03-13T18:55:03;95876.30;;;10.12;56.27
24302;BME280;12421;49.732;20.078;2023-03-13T19:05:07;95858.92;;;10.13;55.57
24302;BME280;12421;49.732;20.078;2023-03-13T19:15:11;95836.77;;;10.15;55.34
24302;BME280;12421;49.732;20.078;2023-03-13T19:25:16;95817.16;;;10.20;54.77
24302;BME280;12421;49.732;20.078;2023-03-13T19:35:20;95805.83;;;10.24;54.37
24302;BME280;12421;49.732;20.078;2023-03-13T19:45:24;95796.01;;;10.24;54.06
24302;BME280;12421;49.732;20.078;2023-03-13T19:55:29;95793.27;;;10.34;53.11
24302;BME280;12421;49.732;20.078;2023-03-13T20:05:33;95788.60;;;10.44;52.29
24302;BME280;12421;49.732;20.078;2023-03-13T20:15:36;95782.85;;;10.48;51.72
24302;BME280;12421;49.732;20.078;2023-03-13T20:25:40;95783.26;;;10.52;51.61
24302;BME280;12421;49.732;20.078;2023-03-13T20:35:43;95779.40;;;10.64;50.52
24302;BME280;12421;49.732;20.078;2023-03-13T20:45:47;95763.14;;;10.80;49.81
24302;BME280;12421;49.732;20.078;2023-03-13T20:55:51;95753.44;;;10.92;49.62
24302;BME280;12421;49.732;20.078;2023-03-13T21:05:56;95747.21;;;10.78;50.65
24302;BME280;12421;49.732;20.078;2023-03-13T21:16:02;95724.27;;;10.54;51.53
24302;BME280;12421;49.732;20.078;2023-03-13T21:26:05;95726.06;;;10.52;51.08
24302;BME280;12421;49.732;20.078;2023-03-13T21:36:10;95712.84;;;10.54;50.86
24302;BME280;12421;49.732;20.078;2023-03-13T21:46:15;95701.05;;;10.67;50.33
24302;BME280;12421;49.732;20.078;2023-03-13T21:56:20;95696.46;;;10.73;50.13
24302;BME280;12421;49.732;20.078;2023-03-13T22:06:24;95697.52;;;10.73;50.44
24302;BME280;12421;49.732;20.078;2023-03-13T22:16:28;95687.42;;;10.53;51.46
24302;BME280;12421;49.732;20.078;2023-03-13T22:26:32;95675.38;;;10.11;52.81
24302;BME280;12421;49.732;20.078;2023-03-13T22:36:36;95659.23;;;9.68;55.11
24302;BME280;12421;49.732;20.078;2023-03-13T22:46:40;95653.48;;;9.23;55.74
24302;BME280;12421;49.732;20.078;2023-03-13T22:56:43;95635.09;;;9.09;55.18
24302;BME280;12421;49.732;20.078;2023-03-13T23:06:46;95614.56;;;9.30;55.46
24302;BME280;12421;49.732;20.078;2023-03-13T23:16:49;95615.70;;;9.21;55.85
24302;BME280;12421;49.732;20.078;2023-03-13T23:26:52;95641.23;;;9.22;55.61
24302;BME280;12421;49.732;20.078;2023-03-13T23:36:55;95639.18;;;9.26;55.51
24302;BME280;12421;49.732;20.078;2023-03-13T23:47:00;95600.06;;;9.22;55.74
24302;BME280;12421;49.732;20.078;2023-03-13T23:57:04;95552.45;;;9.10;56.42
